createdAt,value
2022-12-04T00:02:00.250Z,99431.16
2022-12-04T00:04:26.636Z,99423.50
2022-12-04T00:06:58.920Z,99430.63
2022-12-04T00:09:26.032Z,99425.75
2022-12-04T00:11:52.495Z,99427.47
2022-12-04T00:14:19.113Z,99418.16
2022-12-04T00:16:45.598Z,99422.03
2022-12-04T00:19:11.989Z,99419.38
2022-12-04T00:21:38.421Z,99405.50
2022-12-04T00:24:05.462Z,99410.47
2022-12-04T00:26:31.882Z,99412.00
2022-12-04T00:28:59.095Z,99419.22
2022-12-04T00:31:28.301Z,99417.84
2022-12-04T00:33:55.089Z,99418.53
2022-12-04T00:36:23.818Z,99411.81
2022-12-04T00:38:50.754Z,99402.69
2022-12-04T00:41:21.832Z,99410.44
2022-12-04T00:43:48.506Z,99400.06
2022-12-04T00:46:15.952Z,99398.97
2022-12-04T00:48:42.979Z,99399.94
2022-12-04T00:51:14.714Z,99393.59
2022-12-04T00:53:41.996Z,99389.94
2022-12-04T00:56:20.353Z,99395.88
2022-12-04T00:58:47.673Z,99386.75
2022-12-04T01:01:17.813Z,99384.66
2022-12-04T01:03:44.627Z,99389.50
2022-12-04T01:06:25.933Z,99391.19
2022-12-04T01:08:54.191Z,99393.72
2022-12-04T01:11:22.206Z,99387.66
2022-12-04T01:13:49.212Z,99380.84
2022-12-04T01:16:28.323Z,99382.41
2022-12-04T01:18:54.789Z,99387.13
2022-12-04T01:21:21.171Z,99390.41
2022-12-04T01:23:48.369Z,99388.25
2022-12-04T01:26:14.824Z,99389.59
2022-12-04T01:28:41.563Z,99406.69
2022-12-04T01:31:11.587Z,99400.13
2022-12-04T01:33:39.567Z,99382.22
2022-12-04T01:36:09.322Z,99391.06
2022-12-04T01:38:36.381Z,99384.78
2022-12-04T01:41:04.000Z,99381.72
2022-12-04T01:43:32.321Z,99386.75
2022-12-04T01:46:00.310Z,99384.66
2022-12-04T01:48:33.048Z,99385.84
2022-12-04T01:51:19.240Z,99391.91
2022-12-04T01:53:55.946Z,99386.53
2022-12-04T01:56:26.311Z,99384.81
2022-12-04T01:58:56.837Z,99383.75
2022-12-04T02:01:23.518Z,99381.19
2022-12-04T02:03:50.243Z,99379.50
2022-12-04T02:06:16.664Z,99378.91
2022-12-04T02:08:43.244Z,99372.25
2022-12-04T02:11:19.509Z,99375.84
2022-12-04T02:13:51.735Z,99365.28
2022-12-04T02:16:45.847Z,99367.28
2022-12-04T02:19:34.221Z,99369.44
2022-12-04T02:22:05.545Z,99365.97
2022-12-04T02:24:31.962Z,99360.94
2022-12-04T02:27:03.724Z,99360.13
2022-12-04T02:29:46.976Z,99353.47
2022-12-04T02:32:23.749Z,99359.78
2022-12-04T02:35:04.065Z,99370.94
2022-12-04T02:37:37.875Z,99369.66
2022-12-04T02:40:25.824Z,99374.00
2022-12-04T02:43:01.088Z,99369.13
2022-12-04T02:45:32.577Z,99366.66
2022-12-04T02:48:02.965Z,99349.56
2022-12-04T02:50:32.637Z,99346.81
2022-12-04T02:53:05.525Z,99350.09
2022-12-04T02:55:45.945Z,99361.44
2022-12-04T02:58:17.996Z,99352.50
2022-12-04T03:00:47.055Z,99361.94
2022-12-04T03:03:19.001Z,99360.56
2022-12-04T03:06:00.157Z,99363.75
2022-12-04T03:08:34.098Z,99365.16
2022-12-04T03:11:01.401Z,99371.66
2022-12-04T03:13:49.112Z,99357.44
2022-12-04T03:16:24.352Z,99354.28
2022-12-04T03:19:01.648Z,99359.34
2022-12-04T03:21:35.700Z,99351.69
2022-12-04T03:24:26.870Z,99345.03
2022-12-04T03:27:14.321Z,99348.53
2022-12-04T03:30:11.436Z,99339.50
2022-12-04T03:32:56.569Z,99354.66
2022-12-04T03:35:35.041Z,99357.22
2022-12-04T03:38:10.148Z,99355.06
2022-12-04T03:40:45.899Z,99347.38
2022-12-04T03:43:29.333Z,99361.25
2022-12-04T03:46:02.544Z,99350.06
2022-12-04T03:48:47.515Z,99357.66
2022-12-04T03:51:25.803Z,99341.59
2022-12-04T03:54:02.657Z,99342.56
2022-12-04T03:56:34.706Z,99352.13
2022-12-04T03:59:08.313Z,99352.47
2022-12-04T04:01:40.488Z,99341.16
2022-12-04T04:04:13.604Z,99341.28
2022-12-04T04:06:47.741Z,99340.16
2022-12-04T04:09:22.670Z,99342.97
2022-12-04T04:11:56.112Z,99334.50
2022-12-04T04:14:37.393Z,99346.09
2022-12-04T04:17:08.943Z,99361.41
2022-12-04T04:19:38.355Z,99357.50
2022-12-04T04:22:09.174Z,99355.84
2022-12-04T04:24:50.873Z,99353.59
2022-12-04T04:27:17.222Z,99357.44
2022-12-04T04:29:50.619Z,99356.78
2022-12-04T04:32:37.922Z,99355.16
2022-12-04T04:35:07.026Z,99358.50
2022-12-04T04:37:52.863Z,99359.25
2022-12-04T04:40:22.910Z,99358.19
2022-12-04T04:43:05.182Z,99351.03
2022-12-04T04:45:47.374Z,99362.25
2022-12-04T04:48:23.959Z,99359.94
2022-12-04T04:50:51.162Z,99357.06
2022-12-04T04:53:24.772Z,99359.97
2022-12-04T04:55:51.305Z,99346.41
2022-12-04T04:58:20.205Z,99343.59
2022-12-04T05:01:00.954Z,99337.47
2022-12-04T05:03:28.151Z,99339.88
2022-12-04T05:05:54.558Z,99330.63
2022-12-04T05:08:21.483Z,99329.78
2022-12-04T05:10:47.907Z,99337.56
2022-12-04T05:13:15.424Z,99343.91
2022-12-04T05:15:41.899Z,99350.34
2022-12-04T05:18:09.293Z,99347.97
2022-12-04T05:20:39.271Z,99348.75
2022-12-04T05:23:06.052Z,99359.72
2022-12-04T05:25:32.671Z,99360.41
2022-12-04T05:27:59.004Z,99355.88
2022-12-04T05:30:25.584Z,99371.72
2022-12-04T05:32:52.153Z,99362.03
2022-12-04T05:35:18.847Z,99359.91
2022-12-04T05:37:45.550Z,99367.59
2022-12-04T05:40:12.153Z,99350.41
2022-12-04T05:42:38.858Z,99356.81
2022-12-04T05:45:06.038Z,99359.03
2022-12-04T05:47:32.437Z,99345.94
2022-12-04T05:49:58.910Z,99352.72
2022-12-04T05:52:25.259Z,99347.22
2022-12-04T05:54:51.647Z,99336.16
2022-12-04T05:57:18.070Z,99342.50
2022-12-04T05:59:44.723Z,99340.03
2022-12-04T06:02:11.325Z,99335.69
2022-12-04T06:04:37.886Z,99336.88
2022-12-04T06:07:04.286Z,99336.75
2022-12-04T06:09:30.968Z,99325.06
2022-12-04T06:11:58.351Z,99329.91
2022-12-04T06:14:25.063Z,99327.59
2022-12-04T06:16:51.497Z,99322.44
2022-12-04T06:19:20.176Z,99327.94
2022-12-04T06:21:49.398Z,99324.97
2022-12-04T06:24:19.319Z,99335.13
2022-12-04T06:27:11.345Z,99344.47
2022-12-04T06:29:33.220Z,99332.50
2022-12-04T06:31:59.808Z,99335.97
2022-12-04T06:34:26.333Z,99331.91
2022-12-04T06:36:52.983Z,99341.88
2022-12-04T06:39:19.432Z,99336.69
2022-12-04T06:41:46.037Z,99342.25
2022-12-04T06:44:13.407Z,99352.63
2022-12-04T06:46:45.099Z,99362.25
2022-12-04T06:49:13.341Z,99358.53
2022-12-04T06:51:39.724Z,99370.75
2022-12-04T06:54:06.510Z,99372.66
2022-12-04T06:56:33.836Z,99362.50
2022-12-04T06:59:02.409Z,99358.59
2022-12-04T07:01:31.863Z,99369.28
2022-12-04T07:03:58.932Z,99368.63
2022-12-04T07:06:31.751Z,99374.38
2022-12-04T07:09:01.615Z,99379.59
2022-12-04T07:11:29.182Z,99370.88
2022-12-04T07:13:55.820Z,99364.63
2022-12-04T07:16:24.331Z,99366.84
2022-12-04T07:18:51.850Z,99367.19
2022-12-04T07:21:20.011Z,99361.16
2022-12-04T07:23:49.588Z,99376.00
2022-12-04T07:26:16.239Z,99373.06
2022-12-04T07:28:42.742Z,99378.53
2022-12-04T07:31:13.223Z,99369.72
2022-12-04T07:33:40.471Z,99372.50
2022-12-04T07:36:09.382Z,99359.50
2022-12-04T07:38:35.928Z,99368.94
2022-12-04T07:41:04.637Z,99361.72
2022-12-04T07:43:32.293Z,99357.63
2022-12-04T07:46:03.339Z,99356.63
2022-12-04T07:48:33.350Z,99363.75
2022-12-04T07:51:08.729Z,99366.50
2022-12-04T07:53:36.496Z,99373.38
2022-12-04T07:56:05.184Z,99367.94
2022-12-04T07:58:33.015Z,99380.06
2022-12-04T08:01:26.336Z,99379.47
2022-12-04T08:03:56.136Z,99370.56
2022-12-04T08:06:24.720Z,99377.38
2022-12-04T08:08:52.454Z,99366.31
2022-12-04T08:11:22.101Z,99374.22
2022-12-04T08:13:49.256Z,99370.94
2022-12-04T08:16:15.901Z,99367.69
2022-12-04T08:18:42.641Z,99367.69
2022-12-04T08:21:11.920Z,99372.16
2022-12-04T08:23:40.399Z,99367.47
2022-12-04T08:26:07.524Z,99372.00
2022-12-04T08:28:35.277Z,99371.25
2022-12-04T08:31:03.667Z,99362.56
2022-12-04T08:33:30.178Z,99364.94
2022-12-04T08:35:56.849Z,99367.97
2022-12-04T08:38:23.315Z,99356.63
2022-12-04T08:40:49.983Z,99362.00
2022-12-04T08:43:16.491Z,99347.66
2022-12-04T08:45:42.948Z,99350.28
2022-12-04T08:48:09.697Z,99339.59
2022-12-04T08:50:36.105Z,99330.41
2022-12-04T08:53:02.541Z,99339.50
2022-12-04T08:55:28.952Z,99344.06
2022-12-04T08:57:55.340Z,99351.59
2022-12-04T09:00:21.776Z,99360.28
2022-12-04T09:02:49.369Z,99361.38
2022-12-04T09:05:16.543Z,99363.53
2022-12-04T09:07:42.898Z,99367.34
2022-12-04T09:10:10.176Z,99367.38
2022-12-04T09:12:36.542Z,99365.03
2022-12-04T09:15:03.137Z,99363.31
2022-12-04T09:17:29.647Z,99360.16
2022-12-04T09:20:00.646Z,99366.56
2022-12-04T09:22:40.503Z,99359.47
2022-12-04T09:25:14.417Z,99353.97
2022-12-04T09:27:40.834Z,99353.34
2022-12-04T09:30:09.565Z,99362.06
2022-12-04T09:32:38.173Z,99356.34
2022-12-04T09:35:05.640Z,99353.31
2022-12-04T09:37:35.465Z,99354.47
2022-12-04T09:40:02.247Z,99349.81
2022-12-04T09:42:43.437Z,99339.94
2022-12-04T09:45:20.035Z,99354.97
2022-12-04T09:47:53.627Z,99355.00
2022-12-04T09:50:23.737Z,99354.47
2022-12-04T09:52:58.807Z,99347.88
2022-12-04T09:55:47.352Z,99352.63
2022-12-04T09:58:17.799Z,99358.50
2022-12-04T10:00:47.407Z,99335.59
2022-12-04T10:03:17.466Z,99356.75
2022-12-04T10:06:11.729Z,99360.22
2022-12-04T10:08:41.435Z,99349.13
2022-12-04T10:11:42.878Z,99339.38
2022-12-04T10:14:09.596Z,99339.66
2022-12-04T10:16:56.115Z,99344.31
2022-12-04T10:19:25.153Z,99347.94
2022-12-04T10:22:04.273Z,99336.31
2022-12-04T10:24:54.055Z,99333.97
2022-12-04T10:27:27.966Z,99339.53
2022-12-04T10:29:59.329Z,99344.22
2022-12-04T10:32:30.149Z,99342.56
2022-12-04T10:35:02.955Z,99338.19
2022-12-04T10:37:31.661Z,99342.97
2022-12-04T10:40:20.852Z,99339.34
2022-12-04T10:42:53.647Z,99346.41
2022-12-04T10:45:22.680Z,99335.31
2022-12-04T10:47:52.456Z,99341.56
2022-12-04T10:50:23.890Z,99341.66
2022-12-04T10:52:50.968Z,99334.47
2022-12-04T10:55:34.960Z,99333.47
2022-12-04T10:58:01.843Z,99340.00
2022-12-04T11:00:36.026Z,99344.13
2022-12-04T11:03:22.396Z,99337.91
2022-12-04T11:05:57.202Z,99336.84
2022-12-04T11:08:27.395Z,99338.78
2022-12-04T11:11:02.379Z,99329.38
2022-12-04T11:13:29.259Z,99331.78
2022-12-04T11:15:57.303Z,99329.09
2022-12-04T11:18:29.731Z,99329.09
2022-12-04T11:21:13.101Z,99326.94
2022-12-04T11:23:46.744Z,99318.09
2022-12-04T11:26:13.579Z,99324.28
2022-12-04T11:28:45.324Z,99320.38
2022-12-04T11:31:17.870Z,99323.34
2022-12-04T11:33:55.966Z,99323.25
2022-12-04T11:36:30.239Z,99315.78
2022-12-04T11:39:13.462Z,99318.63
2022-12-04T11:41:40.311Z,99312.97
2022-12-04T11:44:16.214Z,99309.06
2022-12-04T11:46:52.765Z,99309.19
2022-12-04T11:49:22.515Z,99302.97
2022-12-04T11:51:57.929Z,99296.88
2022-12-04T11:54:30.353Z,99290.63
2022-12-04T11:57:26.771Z,99289.41
2022-12-04T12:00:03.752Z,99287.94
2022-12-04T12:03:03.403Z,99276.97
2022-12-04T12:06:21.172Z,99274.16
2022-12-04T12:09:09.399Z,99275.69
2022-12-04T12:11:46.598Z,99261.19
2022-12-04T12:14:30.281Z,99265.47
2022-12-04T12:17:29.691Z,99258.41
2022-12-04T12:20:04.109Z,99260.91
2022-12-04T12:22:48.812Z,99259.47
2022-12-04T12:25:37.555Z,99263.16
2022-12-04T12:28:16.818Z,99255.41
2022-12-04T12:31:09.331Z,99256.09
2022-12-04T12:33:43.028Z,99246.66
2022-12-04T12:36:11.399Z,99242.63
2022-12-04T12:38:46.613Z,99226.03
2022-12-04T12:41:20.528Z,99236.91
2022-12-04T12:44:30.644Z,99230.97
2022-12-04T12:47:02.390Z,99244.41
2022-12-04T12:49:39.029Z,99230.88
2022-12-04T12:52:31.645Z,99230.84
2022-12-04T12:55:23.213Z,99234.44
2022-12-04T12:58:09.904Z,99226.06
2022-12-04T13:00:49.546Z,99220.19
2022-12-04T13:03:39.927Z,99217.41
2022-12-04T13:06:12.488Z,99193.13
2022-12-04T13:08:53.156Z,99192.63
2022-12-04T13:11:25.650Z,99195.16
2022-12-04T13:13:57.525Z,99207.06
2022-12-04T13:16:34.208Z,99208.16
2022-12-04T13:19:11.344Z,99202.75
2022-12-04T13:22:01.618Z,99195.38
2022-12-04T13:24:52.792Z,99192.09
2022-12-04T13:27:34.498Z,99192.59
2022-12-04T13:30:18.968Z,99195.38
2022-12-04T13:33:04.427Z,99181.59
2022-12-04T13:36:01.464Z,99180.00
2022-12-04T13:39:00.415Z,99181.66
2022-12-04T13:41:28.122Z,99187.94
2022-12-04T13:43:55.346Z,99193.84
2022-12-04T13:46:30.817Z,99203.13
2022-12-04T13:49:24.677Z,99199.72
2022-12-04T13:51:52.515Z,99203.31
2022-12-04T13:54:27.203Z,99182.38
2022-12-04T13:57:16.533Z,99187.34
2022-12-04T13:59:43.847Z,99194.75
2022-12-04T14:02:34.483Z,99200.28
2022-12-04T14:05:11.451Z,99213.19
2022-12-04T14:07:42.142Z,99217.41
2022-12-04T14:10:14.805Z,99218.81
2022-12-04T14:12:44.102Z,99219.75
2022-12-04T14:15:28.650Z,99225.75
2022-12-04T14:18:13.521Z,99214.31
2022-12-04T14:20:42.690Z,99222.41
2022-12-04T14:23:16.308Z,99226.91
2022-12-04T14:25:42.722Z,99230.81
2022-12-04T14:28:42.294Z,99229.31
2022-12-04T14:31:08.922Z,99235.38
2022-12-04T14:33:43.225Z,99225.41
2022-12-04T14:36:23.564Z,99218.59
2022-12-04T14:38:59.413Z,99224.13
2022-12-04T14:41:26.728Z,99224.75
2022-12-04T14:43:53.602Z,99221.97
2022-12-04T14:46:41.031Z,99224.91
2022-12-04T14:49:32.373Z,99223.38
2022-12-04T14:52:13.994Z,99227.78
2022-12-04T14:55:06.982Z,99221.38
2022-12-04T14:57:44.987Z,99221.63
2022-12-04T15:00:23.343Z,99218.91
2022-12-04T15:02:56.763Z,99213.44
2022-12-04T15:05:29.327Z,99215.84
2022-12-04T15:08:05.430Z,99223.38
2022-12-04T15:10:34.260Z,99220.63
2022-12-04T15:13:00.780Z,99222.25
2022-12-04T15:15:29.846Z,99220.25
2022-12-04T15:18:11.090Z,99221.44
2022-12-04T15:20:48.428Z,99223.03
2022-12-04T15:23:21.473Z,99225.59
2022-12-04T15:25:53.231Z,99216.69
2022-12-04T15:28:24.277Z,99219.81
2022-12-04T15:30:52.593Z,99221.41
2022-12-04T15:33:22.435Z,99214.81
2022-12-04T15:35:56.583Z,99219.91
2022-12-04T15:38:23.610Z,99211.88
2022-12-04T15:40:56.615Z,99212.94
2022-12-04T15:43:53.446Z,99221.38
2022-12-04T15:46:26.782Z,99224.75
2022-12-04T15:49:04.735Z,99226.09
2022-12-04T15:51:31.224Z,99226.00
2022-12-04T15:53:57.632Z,99228.53
2022-12-04T15:56:24.016Z,99220.31
2022-12-04T15:58:57.911Z,99219.50
2022-12-04T16:01:24.624Z,99224.25
2022-12-04T16:03:53.184Z,99226.97
2022-12-04T16:06:23.165Z,99217.56
2022-12-04T16:09:00.851Z,99216.41
2022-12-04T16:11:37.190Z,99211.66
2022-12-04T16:14:07.752Z,99203.72
2022-12-04T16:16:38.402Z,99210.84
2022-12-04T16:19:38.572Z,99208.81
2022-12-04T16:22:20.344Z,99213.69
2022-12-04T16:24:47.381Z,99214.25
2022-12-04T16:27:16.664Z,99215.69
2022-12-04T16:29:43.735Z,99217.41
2022-12-04T16:32:16.297Z,99217.97
2022-12-04T16:34:42.693Z,99213.16
2022-12-04T16:37:17.170Z,99216.91
2022-12-04T16:39:43.984Z,99220.47
2022-12-04T16:42:25.034Z,99211.75
2022-12-04T16:44:52.051Z,99205.81
2022-12-04T16:47:19.246Z,99208.84
2022-12-04T16:49:49.041Z,99211.97
2022-12-04T16:52:15.696Z,99212.84
2022-12-04T16:54:42.433Z,99208.59
2022-12-04T16:57:09.379Z,99204.03
2022-12-04T16:59:35.937Z,99212.22
2022-12-04T17:02:03.801Z,99215.69
2022-12-04T17:04:30.232Z,99211.38
2022-12-04T17:06:56.696Z,99207.88
2022-12-04T17:09:23.168Z,99207.78
2022-12-04T17:11:49.596Z,99200.47
2022-12-04T17:14:16.160Z,99208.22
2022-12-04T17:16:43.436Z,99215.59
2022-12-04T17:19:11.325Z,99217.81
2022-12-04T17:21:38.359Z,99215.00
2022-12-04T17:24:05.687Z,99213.19
2022-12-04T17:26:32.460Z,99219.97
2022-12-04T17:28:58.768Z,99215.03
2022-12-04T17:31:26.726Z,99212.53
2022-12-04T17:33:53.628Z,99209.38
2022-12-04T17:36:23.014Z,99218.28
2022-12-04T17:38:54.554Z,99218.50
2022-12-04T17:41:20.995Z,99213.88
2022-12-04T17:43:47.425Z,99212.75
2022-12-04T17:46:17.758Z,99221.44
2022-12-04T17:48:44.387Z,99223.94
2022-12-04T17:51:13.452Z,99217.31
2022-12-04T17:53:40.557Z,99214.56
2022-12-04T17:56:09.817Z,99228.34
2022-12-04T17:58:36.389Z,99209.34
2022-12-04T18:01:10.485Z,99220.13
2022-12-04T18:03:37.417Z,99219.03
2022-12-04T18:06:18.744Z,99222.91
2022-12-04T18:08:49.730Z,99234.97
2022-12-04T18:11:17.936Z,99233.06
2022-12-04T18:13:44.260Z,99221.00
2022-12-04T18:16:11.325Z,99222.81
2022-12-04T18:18:38.937Z,99224.50
2022-12-04T18:21:10.996Z,99217.44
2022-12-04T18:23:39.233Z,99217.78
2022-12-04T18:26:06.211Z,99222.63
2022-12-04T18:28:33.424Z,99210.09
2022-12-04T18:31:04.489Z,99214.75
2022-12-04T18:33:32.003Z,99219.25
2022-12-04T18:35:58.869Z,99209.25
2022-12-04T18:38:27.640Z,99208.72
2022-12-04T18:40:54.307Z,99214.72
2022-12-04T18:43:21.619Z,99211.50
2022-12-04T18:45:58.676Z,99218.88
2022-12-04T18:48:28.577Z,99223.66
2022-12-04T18:50:55.118Z,99215.19
2022-12-04T18:53:22.100Z,99217.59
2022-12-04T18:55:48.690Z,99216.97
2022-12-04T18:58:15.144Z,99218.59
2022-12-04T19:00:41.484Z,99221.03
2022-12-04T19:03:07.834Z,99219.84
2022-12-04T19:05:34.355Z,99215.16
2022-12-04T19:08:01.126Z,99219.22
2022-12-04T19:10:28.397Z,99213.63
2022-12-04T19:12:55.728Z,99220.78
2022-12-04T19:15:22.285Z,99215.00
2022-12-04T19:17:49.008Z,99216.97
2022-12-04T19:20:15.348Z,99211.72
2022-12-04T19:22:41.819Z,99217.34
2022-12-04T19:25:08.830Z,99218.72
2022-12-04T19:27:35.229Z,99218.50
2022-12-04T19:30:01.560Z,99219.66
2022-12-04T19:32:27.961Z,99216.03
2022-12-04T19:34:54.281Z,99211.69
2022-12-04T19:37:20.625Z,99221.38
2022-12-04T19:39:47.182Z,99223.53
2022-12-04T19:42:13.700Z,99215.75
2022-12-04T19:44:48.245Z,99219.59
2022-12-04T19:47:14.992Z,99217.31
2022-12-04T19:49:41.443Z,99223.81
2022-12-04T19:52:07.807Z,99229.59
2022-12-04T19:54:34.136Z,99224.91
2022-12-04T19:57:00.595Z,99228.03
2022-12-04T19:59:29.498Z,99228.47
2022-12-04T20:01:59.523Z,99224.34
2022-12-04T20:04:25.933Z,99218.53
2022-12-04T20:06:52.667Z,99217.41
2022-12-04T20:09:21.981Z,99215.97
2022-12-04T20:11:48.789Z,99222.16
2022-12-04T20:14:15.693Z,99219.41
2022-12-04T20:16:42.286Z,99207.25
2022-12-04T20:19:13.491Z,99211.47
2022-12-04T20:21:39.995Z,99218.19
2022-12-04T20:24:06.982Z,99211.03
2022-12-04T20:26:35.936Z,99204.47
2022-12-04T20:29:02.650Z,99212.75
2022-12-04T20:31:37.949Z,99217.91
2022-12-04T20:34:08.157Z,99214.41
2022-12-04T20:36:40.284Z,99216.19
2022-12-04T20:39:08.039Z,99207.50
2022-12-04T20:41:35.203Z,99218.78
2022-12-04T20:44:04.145Z,99221.28
2022-12-04T20:46:33.290Z,99221.41
2022-12-04T20:49:00.911Z,99227.69
2022-12-04T20:51:33.332Z,99219.47
2022-12-04T20:54:00.621Z,99223.38
2022-12-04T20:56:29.089Z,99230.16
2022-12-04T20:59:00.583Z,99224.31
2022-12-04T21:01:27.928Z,99226.84
2022-12-04T21:03:54.845Z,99227.59
2022-12-04T21:06:28.353Z,99226.47
2022-12-04T21:08:58.088Z,99216.09
2022-12-04T21:11:27.494Z,99231.09
2022-12-04T21:13:55.860Z,99235.34
2022-12-04T21:16:22.658Z,99224.25
2022-12-04T21:18:49.179Z,99227.75
2022-12-04T21:21:15.590Z,99222.75
2022-12-04T21:23:42.019Z,99229.34
2022-12-04T21:26:08.327Z,99225.94
2022-12-04T21:28:34.640Z,99220.63
2022-12-04T21:31:05.743Z,99226.00
2022-12-04T21:33:33.565Z,99219.84
2022-12-04T21:36:09.225Z,99215.81
2022-12-04T21:38:37.913Z,99209.75
2022-12-04T21:41:06.784Z,99218.38
2022-12-04T21:43:33.897Z,99216.38
2022-12-04T21:46:09.206Z,99217.31
2022-12-04T21:48:36.393Z,99227.75
2022-12-04T21:51:13.237Z,99225.00
2022-12-04T21:53:53.567Z,99215.78
2022-12-04T21:56:21.027Z,99204.03
2022-12-04T21:58:47.393Z,99216.66
2022-12-04T22:01:16.144Z,99210.00
2022-12-04T22:03:43.009Z,99211.41
2022-12-04T22:06:09.787Z,99211.38
2022-12-04T22:08:37.265Z,99220.84
2022-12-04T22:11:09.041Z,99213.69
2022-12-04T22:13:37.277Z,99211.78
2022-12-04T22:16:09.393Z,99209.41
2022-12-04T22:18:36.543Z,99206.28
2022-12-04T22:21:08.376Z,99207.97
2022-12-04T22:23:35.720Z,99204.72
2022-12-04T22:26:10.940Z,99207.38
2022-12-04T22:28:37.471Z,99211.00
2022-12-04T22:31:10.858Z,99211.66
2022-12-04T22:33:37.937Z,99214.31
2022-12-04T22:36:07.488Z,99208.72
2022-12-04T22:38:42.505Z,99210.97
2022-12-04T22:41:21.250Z,99215.09
2022-12-04T22:43:47.917Z,99211.47
2022-12-04T22:46:14.491Z,99203.84
2022-12-04T22:48:42.659Z,99223.13
2022-12-04T22:51:14.486Z,99214.06
2022-12-04T22:53:44.107Z,99220.28
2022-12-04T22:56:16.151Z,99198.22
2022-12-04T22:58:43.247Z,99214.91
2022-12-04T23:01:14.168Z,99215.69
2022-12-04T23:03:42.398Z,99220.59
2022-12-04T23:06:10.532Z,99211.19
2022-12-04T23:08:39.065Z,99218.91
2022-12-04T23:11:11.417Z,99215.22
2022-12-04T23:13:38.752Z,99216.38
2022-12-04T23:16:09.541Z,99213.97
2022-12-04T23:18:36.789Z,99203.78
2022-12-04T23:21:09.681Z,99202.75
2022-12-04T23:23:37.641Z,99210.34
2022-12-04T23:26:05.728Z,99212.22
2022-12-04T23:28:32.302Z,99198.53
2022-12-04T23:30:59.397Z,99216.03
2022-12-04T23:33:26.043Z,99216.13
2022-12-04T23:35:54.193Z,99215.94
2022-12-04T23:38:21.988Z,99222.84
2022-12-04T23:40:49.118Z,99217.50
2022-12-04T23:43:15.999Z,99210.19
2022-12-04T23:45:43.459Z,99212.31
2022-12-04T23:48:10.617Z,99215.50
2022-12-04T23:50:36.999Z,99218.19
2022-12-04T23:53:03.736Z,99219.66
2022-12-04T23:55:34.188Z,99204.28
2022-12-04T23:58:01.988Z,99216.63
